Time;durP1;ratioP1;P1;durP2;ratioP2;P2;SDS_P1;SDS_P2;PMS_P1;PMS_P2;Temp;Humidity;BMP_temperature;BMP_pressure;BME280_temperature;BME280_humidity;BME280_pressure;Samples;Min_cycle;Max_cycle;Signal;HPM_P1;HPM_P2
2023/05/23 03:00:46;;;;;;;7.18;5.00;;;24.10;49.10;;;;;;5982498;23;46130;-81
2023/05/23 03:03:11;;;;;;;8.88;5.55;;;24.10;49.60;;;;;;4912361;28;46484;-80
2023/05/23 03:05:37;;;;;;;6.47;5.40;;;24.10;49.20;;;;;;4894741;28;47237;-81
2023/05/23 03:08:02;;;;;;;10.02;5.72;;;24.10;49.30;;;;;;4931540;28;45423;-82
2023/05/23 03:10:31;;;;;;;5.97;5.38;;;24.10;49.30;;;;;;4913803;28;44730;-82
2023/05/23 03:15:33;;;;;;;5.82;5.22;;;24.10;49.60;;;;;;4983379;28;45540;-60
2023/05/23 03:17:58;;;;;;;9.15;5.93;;;24.00;49.40;;;;;;4972422;28;45290;-57
2023/05/23 03:20:24;;;;;;;10.07;5.90;;;24.00;49.50;;;;;;4982346;28;45200;-59
2023/05/23 03:22:49;;;;;;;8.88;6.10;;;24.00;49.50;;;;;;4994610;28;45554;-61
2023/05/23 03:25:15;;;;;;;9.50;7.05;;;24.00;50.20;;;;;;4987006;28;45485;-59
2023/05/23 03:27:41;;;;;;;6.35;5.53;;;23.90;49.60;;;;;;4970639;28;45527;-60
2023/05/23 03:30:10;;;;;;;9.15;5.82;;;23.90;49.70;;;;;;4939430;28;45346;-62
2023/05/23 03:32:36;;;;;;;10.32;6.70;;;23.90;50.00;;;;;;4971247;28;44824;-60
2023/05/23 03:35:04;;;;;;;7.47;5.63;;;23.80;49.90;;;;;;4970213;28;45179;-61
2023/05/23 03:37:30;;;;;;;7.07;5.95;;;23.80;50.20;;;;;;4938173;28;45419;-59
2023/05/23 03:39:55;;;;;;;9.73;5.97;;;23.80;50.20;;;;;;4971270;28;45253;-58
2023/05/23 03:42:21;;;;;;;7.75;6.18;;;23.70;50.20;;;;;;4984691;28;45420;-59
2023/05/23 03:44:46;;;;;;;11.48;6.43;;;23.70;50.40;;;;;;4982374;28;46304;-59
2023/05/23 03:47:12;;;;;;;9.95;6.68;;;23.70;50.40;;;;;;4979292;28;45895;-59
2023/05/23 03:49:38;;;;;;;8.32;6.63;;;23.70;50.60;;;;;;4986559;28;45585;-62
2023/05/23 03:52:03;;;;;;;11.50;6.95;;;23.60;50.60;;;;;;4961558;28;45014;-60
2023/05/23 03:54:29;;;;;;;7.15;6.45;;;23.60;50.80;;;;;;4985999;28;45987;-63
2023/05/23 03:56:54;;;;;;;8.27;6.68;;;23.60;50.80;;;;;;4960220;28;45578;-60
2023/05/23 03:59:20;;;;;;;7.13;6.05;;;23.50;50.80;;;;;;4986867;28;45705;-60
2023/05/23 04:01:45;;;;;;;7.50;5.88;;;23.50;50.80;;;;;;4968032;28;45324;-58
2023/05/23 04:04:11;;;;;;;8.27;7.07;;;23.50;50.90;;;;;;4994307;28;45305;-60
2023/05/23 04:06:37;;;;;;;9.57;6.55;;;23.50;51.00;;;;;;4970278;28;46212;-62
2023/05/23 04:09:04;;;;;;;7.72;5.97;;;23.50;51.10;;;;;;4939071;28;45285;-60
2023/05/23 04:11:30;;;;;;;7.38;6.13;;;23.50;51.20;;;;;;4941977;28;45448;-61
2023/05/23 04:13:56;;;;;;;6.35;5.65;;;23.40;51.20;;;;;;4986433;28;45437;-60
2023/05/23 04:16:22;;;;;;;7.35;5.43;;;23.40;51.90;;;;;;4978099;28;45901;-60
2023/05/23 04:18:48;;;;;;;9.27;6.28;;;23.40;51.30;;;;;;4980300;28;45615;-59
2023/05/23 04:21:14;;;;;;;8.32;6.55;;;23.40;51.40;;;;;;4982896;28;45643;-58
2023/05/23 04:23:40;;;;;;;7.18;6.15;;;23.40;51.50;;;;;;4986596;28;46413;-59
2023/05/23 04:26:05;;;;;;;6.65;5.93;;;23.40;51.50;;;;;;4963618;28;45483;-60
2023/05/23 04:28:33;;;;;;;7.07;5.72;;;23.40;51.60;;;;;;4990728;28;45906;-59
2023/05/23 04:30:58;;;;;;;7.68;6.07;;;23.30;51.60;;;;;;4969260;28;45527;-61
2023/05/23 04:33:24;;;;;;;7.38;6.18;;;23.40;51.70;;;;;;4953214;28;46367;-59
2023/05/23 04:35:50;;;;;;;6.85;5.78;;;23.30;51.70;;;;;;4982106;28;45240;-61
2023/05/23 04:38:16;;;;;;;7.95;6.15;;;23.30;51.70;;;;;;4980140;28;44901;-60
2023/05/23 04:40:41;;;;;;;7.10;6.22;;;23.30;51.80;;;;;;4970999;28;45741;-59
2023/05/23 04:43:09;;;;;;;8.20;6.13;;;23.30;51.80;;;;;;4979542;28;46478;-61
2023/05/23 04:45:35;;;;;;;8.45;6.13;;;23.30;51.90;;;;;;4976901;28;45188;-61
2023/05/23 04:48:01;;;;;;;11.40;6.07;;;23.30;52.00;;;;;;4963996;28;45508;-59
2023/05/23 04:50:30;;;;;;;7.80;5.47;;;23.30;52.00;;;;;;4951914;28;45635;-63
2023/05/23 04:52:56;;;;;;;7.00;5.85;;;23.30;52.10;;;;;;4981673;28;46051;-62
2023/05/23 04:55:21;;;;;;;7.03;5.88;;;23.30;52.20;;;;;;4956364;28;46057;-61
2023/05/23 04:57:47;;;;;;;8.45;6.00;;;23.30;52.20;;;;;;4988763;28;45522;-60
2023/05/23 05:00:16;;;;;;;7.93;5.82;;;23.30;52.20;;;;;;4983799;28;45644;-60
2023/05/23 05:02:42;;;;;;;7.78;6.22;;;23.30;52.40;;;;;;4974395;28;45746;-60
2023/05/23 05:05:08;;;;;;;7.03;4.80;;;23.30;52.30;;;;;;4982083;28;45137;-60
2023/05/23 05:07:35;;;;;;;7.10;5.50;;;23.20;52.30;;;;;;4967276;28;45501;-61
2023/05/23 05:10:02;;;;;;;8.57;6.40;;;23.20;52.30;;;;;;4985328;28;45600;-60
2023/05/23 05:12:28;;;;;;;9.35;5.80;;;23.30;52.40;;;;;;4964772;28;47514;-61
2023/05/23 05:14:53;;;;;;;8.45;6.18;;;23.30;52.50;;;;;;4982408;28;45296;-60
2023/05/23 05:17:19;;;;;;;9.38;6.28;;;23.30;52.50;;;;;;4974796;28;44883;-61
2023/05/23 05:19:45;;;;;;;9.32;6.65;;;23.30;52.50;;;;;;4988588;28;45020;-61
2023/05/23 05:22:10;;;;;;;7.65;6.22;;;23.30;52.60;;;;;;4987569;28;46146;-61
2023/05/23 05:24:36;;;;;;;7.25;6.30;;;23.30;52.60;;;;;;4985400;28;44872;-61
2023/05/23 05:27:02;;;;;;;7.93;6.07;;;23.30;52.60;;;;;;4987071;28;45282;-59
2023/05/23 05:29:27;;;;;;;12.57;6.57;;;23.30;52.50;;;;;;4942507;28;46166;-61
2023/05/23 05:31:53;;;;;;;8.63;6.45;;;23.40;52.30;;;;;;4978662;28;45269;-60
2023/05/23 05:34:18;;;;;;;7.95;6.25;;;23.60;51.70;;;;;;4991520;28;45331;-59
2023/05/23 05:36:47;;;;;;;9.20;5.82;;;23.80;51.20;;;;;;4967704;28;45447;-60
2023/05/23 05:39:14;;;;;;;8.23;6.50;;;23.80;51.20;;;;;;4966173;28;45587;-59
2023/05/23 05:41:39;;;;;;;7.80;6.43;;;23.90;51.10;;;;;;4985639;28;46350;-59
2023/05/23 05:44:06;;;;;;;6.65;5.95;;;24.00;50.90;;;;;;4988663;28;45341;-60
2023/05/23 05:46:31;;;;;;;7.60;5.65;;;24.10;50.90;;;;;;4975685;28;45224;-60
2023/05/23 05:48:57;;;;;;;8.48;6.25;;;23.80;51.20;;;;;;4989506;28;45467;-61
2023/05/23 05:51:22;;;;;;;8.73;6.05;;;23.70;51.70;;;;;;4982329;28;45515;-60
2023/05/23 05:53:48;;;;;;;6.57;5.90;;;23.70;51.80;;;;;;4991667;28;45009;-60
2023/05/23 05:56:14;;;;;;;7.28;5.82;;;23.60;52.00;;;;;;4986726;28;45454;-58
2023/05/23 05:58:39;;;;;;;7.72;6.43;;;23.60;52.10;;;;;;4973241;28;45468;-58
2023/05/23 06:01:05;;;;;;;7.63;5.72;;;23.50;52.20;;;;;;4978232;28;45776;-59
2023/05/23 06:03:31;;;;;;;6.78;5.95;;;23.50;52.20;;;;;;4986949;28;45264;-61
2023/05/23 06:05:56;;;;;;;8.85;6.22;;;23.50;52.20;;;;;;4981287;28;44920;-60
2023/05/23 06:08:22;;;;;;;7.65;6.32;;;23.50;52.20;;;;;;4987367;28;44996;-59
2023/05/23 06:10:48;;;;;;;8.20;6.47;;;23.50;52.20;;;;;;4989380;28;45272;-61
2023/05/23 06:13:13;;;;;;;8.73;5.93;;;23.50;52.30;;;;;;4981525;28;46819;-60
2023/05/23 06:15:39;;;;;;;7.63;6.15;;;23.50;52.20;;;;;;4986516;28;45350;-60
2023/05/23 06:18:04;;;;;;;7.65;6.28;;;23.50;52.30;;;;;;4988803;28;45540;-60
2023/05/23 06:20:30;;;;;;;9.07;5.85;;;23.50;52.30;;;;;;4985267;28;47786;-59
2023/05/23 06:22:55;;;;;;;9.88;6.63;;;23.50;52.30;;;;;;4988558;28;44869;-59
2023/05/23 06:25:21;;;;;;;7.30;6.32;;;23.50;52.30;;;;;;4987111;28;44872;-61
2023/05/23 06:27:46;;;;;;;7.72;5.97;;;23.50;52.40;;;;;;4993138;28;45053;-61
2023/05/23 06:30:13;;;;;;;7.53;5.97;;;23.50;52.30;;;;;;4987110;28;45805;-62
2023/05/23 06:32:39;;;;;;;7.68;6.22;;;23.50;52.30;;;;;;4997098;28;45089;-60
2023/05/23 06:35:06;;;;;;;8.70;6.32;;;23.60;52.30;;;;;;4980888;28;46298;-61
2023/05/23 06:37:31;;;;;;;7.47;6.43;;;23.60;52.30;;;;;;4987237;28;45599;-59
2023/05/23 06:39:57;;;;;;;8.25;6.05;;;23.60;52.80;;;;;;4992117;28;46011;-59
2023/05/23 06:42:22;;;;;;;7.97;6.32;;;23.60;52.20;;;;;;4992239;28;45193;-60
2023/05/23 06:44:48;;;;;;;7.15;5.70;;;23.60;52.10;;;;;;4967707;28;47711;-59
2023/05/23 06:47:13;;;;;;;8.95;5.90;;;23.60;52.20;;;;;;4977313;28;45220;-61
2023/05/23 06:49:39;;;;;;;8.18;6.32;;;23.60;52.20;;;;;;4990338;28;46242;-60
2023/05/23 06:52:04;;;;;;;8.40;6.57;;;23.60;52.20;;;;;;4991506;28;45168;-60
2023/05/23 06:54:30;;;;;;;6.88;6.18;;;23.60;52.20;;;;;;4996163;28;45432;-61
2023/05/23 06:56:56;;;;;;;7.22;6.13;;;23.50;52.10;;;;;;4977885;28;45034;-62
2023/05/23 06:59:21;;;;;;;9.32;6.47;;;23.60;52.20;;;;;;4980209;28;46075;-61
2023/05/23 07:01:47;;;;;;;7.80;6.78;;;23.60;52.20;;;;;;4987104;28;45333;-59
2023/05/23 07:04:12;;;;;;;7.05;5.78;;;23.60;52.20;;;;;;4993047;28;45608;-61
2023/05/23 07:06:38;;;;;;;8.90;6.03;;;23.60;52.10;;;;;;4974933;28;45691;-60
2023/05/23 07:09:04;;;;;;;9.93;6.25;;;23.70;52.10;;;;;;4990075;28;45159;-59
2023/05/23 07:11:31;;;;;;;10.35;6.03;;;23.60;51.90;;;;;;4988992;28;45276;-58
2023/05/23 07:13:56;;;;;;;7.32;6.13;;;23.60;51.90;;;;;;4985866;28;45267;-60
2023/05/23 07:16:22;;;;;;;8.30;6.20;;;23.60;51.80;;;;;;4941138;28;45584;-61
2023/05/23 07:18:47;;;;;;;7.20;6.47;;;23.60;51.90;;;;;;4962815;28;46058;-59
2023/05/23 07:21:13;;;;;;;8.43;6.55;;;23.60;51.90;;;;;;4964468;28;45449;-58
2023/05/23 07:23:39;;;;;;;9.82;6.32;;;23.60;51.90;;;;;;4978258;28;45125;-60
2023/05/23 07:26:05;;;;;;;7.30;6.55;;;23.50;51.80;;;;;;4968576;28;45274;-59
2023/05/23 07:28:30;;;;;;;8.00;6.50;;;23.50;51.80;;;;;;4944888;28;46131;-57
2023/05/23 07:30:57;;;;;;;8.07;7.03;;;23.50;51.80;;;;;;4961582;28;45466;-57
2023/05/23 07:33:22;;;;;;;8.98;6.75;;;23.50;51.90;;;;;;4952807;28;45272;-59
2023/05/23 07:35:48;;;;;;;8.20;6.75;;;23.50;51.90;;;;;;4965405;28;45598;-57
2023/05/23 07:38:13;;;;;;;9.15;6.50;;;23.50;51.90;;;;;;4965393;28;45982;-58
2023/05/23 07:40:39;;;;;;;8.57;6.50;;;23.50;51.90;;;;;;4963656;28;45273;-59
2023/05/23 07:43:05;;;;;;;7.07;6.20;;;23.50;51.80;;;;;;4973143;28;44687;-58
2023/05/23 07:45:30;;;;;;;7.82;6.97;;;23.50;51.70;;;;;;4964538;28;45509;-56
2023/05/23 07:47:56;;;;;;;6.53;5.93;;;23.50;51.70;;;;;;4949503;28;45520;-58
2023/05/23 07:50:21;;;;;;;11.02;6.00;;;23.60;51.70;;;;;;4954502;28;45954;-57
2023/05/23 07:52:47;;;;;;;7.82;6.30;;;23.60;51.70;;;;;;4980260;28;45162;-58
2023/05/23 07:55:13;;;;;;;10.50;6.88;;;23.60;51.60;;;;;;4971406;28;45302;-64
2023/05/23 07:57:38;;;;;;;10.75;6.53;;;23.60;51.60;;;;;;4968055;28;46668;-57
2023/05/23 08:00:05;;;;;;;6.93;6.22;;;23.60;51.50;;;;;;4965034;28;45180;-66
2023/05/23 08:02:36;;;;;;;10.85;6.43;;;23.60;51.60;;;;;;4939111;28;45041;-60
2023/05/23 08:05:02;;;;;;;8.00;5.88;;;23.70;51.40;;;;;;4970730;28;45032;-61
2023/05/23 08:07:28;;;;;;;10.10;6.50;;;23.70;51.20;;;;;;4955124;28;45845;-59
2023/05/23 08:09:53;;;;;;;6.00;5.40;;;23.70;51.10;;;;;;4967158;28;45445;-59
2023/05/23 08:12:19;;;;;;;6.72;5.32;;;23.70;51.00;;;;;;4942891;28;44908;-60
2023/05/23 08:14:45;;;;;;;7.03;5.93;;;23.70;50.80;;;;;;4973125;28;45462;-60
2023/05/23 08:17:11;;;;;;;6.70;5.57;;;23.70;50.80;;;;;;4963779;28;45139;-60
2023/05/23 08:19:37;;;;;;;8.27;5.40;;;23.70;50.70;;;;;;4953713;28;45363;-60
2023/05/23 08:22:03;;;;;;;8.93;5.78;;;23.80;50.70;;;;;;4959983;28;45248;-59
2023/05/23 08:24:29;;;;;;;6.43;5.07;;;23.80;50.70;;;;;;4971502;28;45537;-60
2023/05/23 08:26:55;;;;;;;7.55;5.03;;;23.80;50.70;;;;;;4947874;28;45868;-61
2023/05/23 08:29:20;;;;;;;6.88;5.35;;;23.90;50.80;;;;;;4968150;28;45209;-59
2023/05/23 08:31:46;;;;;;;7.15;5.55;;;23.90;50.80;;;;;;4963388;28;45327;-60
2023/05/23 08:34:13;;;;;;;10.25;6.13;;;24.00;50.80;;;;;;4970802;28;45691;-60
2023/05/23 08:36:38;;;;;;;6.38;5.38;;;24.00;50.70;;;;;;4966695;28;47092;-60
2023/05/23 08:39:04;;;;;;;7.90;6.32;;;24.10;50.70;;;;;;4957388;28;45346;-58
2023/05/23 08:41:30;;;;;;;6.65;5.78;;;24.10;50.60;;;;;;4970574;28;45375;-58
2023/05/23 08:43:58;;;;;;;9.07;5.88;;;24.10;50.60;;;;;;4929948;28;45397;-55
2023/05/23 08:46:24;;;;;;;6.40;5.20;;;24.20;50.70;;;;;;4944964;28;45997;-57
2023/05/23 08:48:51;;;;;;;7.25;5.72;;;24.20;50.60;;;;;;4970161;28;45496;-59
2023/05/23 08:51:17;;;;;;;6.25;5.18;;;24.20;50.60;;;;;;4961165;28;45374;-56
2023/05/23 08:53:48;;;;;;;9.85;5.63;;;24.30;50.50;;;;;;4945886;28;45173;-60
2023/05/23 08:56:16;;;;;;;8.25;5.53;;;24.30;50.50;;;;;;4943520;28;45930;-57
2023/05/23 08:58:42;;;;;;;7.70;5.13;;;24.30;50.50;;;;;;4958921;28;45593;-60
2023/05/23 09:01:09;;;;;;;7.30;5.97;;;24.40;50.50;;;;;;4966721;28;45319;-61
2023/05/23 09:03:36;;;;;;;6.10;4.85;;;24.40;50.50;;;;;;4976012;28;45201;-60
2023/05/23 09:06:02;;;;;;;7.55;5.70;;;24.40;50.50;;;;;;4958963;28;46187;-58
2023/05/23 09:08:28;;;;;;;5.38;4.75;;;24.50;50.40;;;;;;4968461;28;45129;-58
2023/05/23 09:10:54;;;;;;;6.40;5.45;;;24.50;50.40;;;;;;4949206;28;45634;-58
2023/05/23 09:13:19;;;;;;;7.05;5.22;;;24.50;50.30;;;;;;4975623;28;45373;-57
2023/05/23 09:16:05;;;;;;;7.25;5.18;;;24.60;50.30;;;;;;4977361;28;47028;-58
2023/05/23 09:18:37;;;;;;;6.40;5.18;;;24.60;50.30;;;;;;4969910;28;46408;-58
2023/05/23 09:21:03;;;;;;;5.97;5.38;;;24.60;50.20;;;;;;4989493;28;45696;-59
2023/05/23 09:23:32;;;;;;;6.10;5.50;;;24.70;50.20;;;;;;4973137;28;45636;-59
2023/05/23 09:26:02;;;;;;;6.47;4.90;;;24.70;50.20;;;;;;4969401;28;46226;-59
2023/05/23 09:28:28;;;;;;;6.78;5.65;;;24.70;50.20;;;;;;4994408;28;44621;-59
2023/05/23 09:30:58;;;;;;;5.97;5.38;;;24.80;50.20;;;;;;4982454;28;45249;-59
2023/05/23 09:33:29;;;;;;;5.65;4.80;;;24.80;50.10;;;;;;4960223;28;45400;-59
2023/05/23 09:35:54;;;;;;;6.53;5.30;;;24.80;50.10;;;;;;4969624;28;45261;-58
2023/05/23 09:38:20;;;;;;;5.38;4.88;;;24.80;50.10;;;;;;4985901;28;45614;-57
2023/05/23 09:40:46;;;;;;;5.80;5.03;;;24.90;50.10;;;;;;4985271;28;45280;-60
2023/05/23 09:43:11;;;;;;;5.75;5.22;;;24.90;50.00;;;;;;4977705;28;45572;-58
2023/05/23 09:45:37;;;;;;;7.10;5.00;;;24.90;50.00;;;;;;4989418;28;46127;-56
2023/05/23 09:48:02;;;;;;;5.78;5.07;;;24.90;50.00;;;;;;4983886;28;45601;-58
2023/05/23 09:50:32;;;;;;;5.95;4.90;;;24.90;50.00;;;;;;4985405;28;45552;-61
2023/05/23 09:52:59;;;;;;;5.38;4.88;;;24.90;50.00;;;;;;4971560;28;45227;-57
2023/05/23 09:55:25;;;;;;;5.65;4.75;;;25.00;50.00;;;;;;4985689;28;46182;-58
2023/05/23 09:57:53;;;;;;;5.22;4.70;;;25.00;49.90;;;;;;4988632;28;45214;-57
2023/05/23 10:00:19;;;;;;;6.57;4.85;;;25.00;49.90;;;;;;4976951;28;49145;-61
2023/05/23 10:03:11;;;;;;;6.18;4.75;;;25.00;49.80;;;;;;4974935;28;45485;-59
2023/05/23 10:05:55;;;;;;;5.35;4.65;;;25.10;50.00;;;;;;4965101;28;45612;-58
2023/05/23 10:08:36;;;;;;;5.32;4.40;;;25.10;49.80;;;;;;4957375;28;45258;-55
2023/05/23 10:11:15;;;;;;;4.80;4.40;;;25.10;49.70;;;;;;4965025;28;45310;-60
2023/05/23 10:13:45;;;;;;;5.18;4.68;;;25.20;49.80;;;;;;4997251;28;45199;-59
2023/05/23 10:16:17;;;;;;;4.82;4.28;;;25.20;49.70;;;;;;4984629;28;45916;-60
2023/05/23 10:18:43;;;;;;;5.55;4.82;;;25.20;49.60;;;;;;4980181;28;44928;-59
2023/05/23 10:21:14;;;;;;;6.72;5.05;;;25.30;49.60;;;;;;4969657;28;45077;-58
2023/05/23 10:23:40;;;;;;;5.13;4.63;;;25.30;49.50;;;;;;4968462;28;45329;-59
2023/05/23 10:26:06;;;;;;;5.20;4.70;;;25.30;49.40;;;;;;4977217;28;45509;-58
2023/05/23 10:28:31;;;;;;;6.18;4.78;;;25.30;49.40;;;;;;4974709;28;45276;-59
2023/05/23 10:30:58;;;;;;;5.00;4.50;;;25.30;49.30;;;;;;4960800;28;45351;-59
2023/05/23 10:33:23;;;;;;;5.00;4.50;;;25.30;49.30;;;;;;4960770;28;45106;-60
2023/05/23 10:36:24;;;;;;;6.03;4.47;;;25.30;49.20;;;;;;4972334;28;45327;-60
2023/05/23 10:38:50;;;;;;;7.10;4.07;;;25.40;49.20;;;;;;4876502;29;45438;-61
2023/05/23 10:41:37;;;;;;;5.47;4.97;;;25.40;49.20;;;;;;4964151;28;45215;-61
2023/05/23 10:44:28;;;;;;;4.75;4.25;;;25.40;49.10;;;;;;4971272;28;45756;-60
2023/05/23 10:47:00;;;;;;;4.30;3.90;;;25.40;49.10;;;;;;4970628;28;45144;-58
2023/05/23 10:49:47;;;;;;;5.47;4.45;;;25.40;49.10;;;;;;4989570;28;45277;-59
2023/05/23 10:52:13;;;;;;;4.85;4.35;;;25.40;49.00;;;;;;4971354;28;46372;-62
2023/05/23 10:54:43;;;;;;;3.97;3.67;;;25.40;49.10;;;;;;4972503;28;44917;-60
2023/05/23 10:57:10;;;;;;;5.00;4.07;;;25.50;49.00;;;;;;4972701;28;45280;-62
2023/05/23 10:59:37;;;;;;;4.40;3.97;;;25.50;49.00;;;;;;4982206;28;45225;-61
2023/05/23 11:02:02;;;;;;;6.65;4.20;;;25.50;49.00;;;;;;4970995;28;45187;-60
2023/05/23 11:04:28;;;;;;;6.00;4.60;;;25.50;49.00;;;;;;4970127;28;45600;-61
2023/05/23 11:06:54;;;;;;;5.15;4.03;;;25.50;48.90;;;;;;4992790;28;45484;-62
2023/05/23 11:09:20;;;;;;;4.30;3.88;;;25.60;48.90;;;;;;4960994;28;44959;-62
2023/05/23 11:12:01;;;;;;;5.18;4.30;;;25.60;48.90;;;;;;4970803;28;45619;-62
2023/05/23 11:14:30;;;;;;;4.45;3.65;;;25.60;48.80;;;;;;4968325;28;45376;-62
2023/05/23 11:16:55;;;;;;;4.75;4.05;;;25.70;48.80;;;;;;4984750;28;45302;-62
2023/05/23 11:19:24;;;;;;;3.92;3.55;;;25.70;48.80;;;;;;4984283;28;45570;-63
2023/05/23 11:21:51;;;;;;;5.30;4.40;;;25.70;48.80;;;;;;4989269;28;45347;-66
2023/05/23 11:24:17;;;;;;;4.80;4.30;;;25.70;48.80;;;;;;4976944;28;45265;-61
2023/05/23 11:27:02;;;;;;;4.55;4.15;;;25.70;48.80;;;;;;4982073;28;46021;-63
2023/05/23 11:29:28;;;;;;;5.25;4.10;;;25.80;49.00;;;;;;4976306;28;45119;-62
2023/05/23 11:31:55;;;;;;;4.30;3.67;;;25.80;48.90;;;;;;4993800;28;45709;-60
2023/05/23 11:34:21;;;;;;;4.82;3.70;;;25.90;49.00;;;;;;4957566;28;45530;-62
2023/05/23 11:36:46;;;;;;;4.45;3.75;;;25.80;48.90;;;;;;4977295;28;46151;-63
2023/05/23 11:39:12;;;;;;;4.35;3.95;;;25.90;49.00;;;;;;4975260;28;45283;-59
2023/05/23 11:41:38;;;;;;;4.60;3.55;;;25.90;48.90;;;;;;4972585;28;45301;-62
2023/05/23 11:44:10;;;;;;;4.10;3.70;;;25.90;48.90;;;;;;4999026;28;45130;-61
2023/05/23 11:46:36;;;;;;;4.55;3.83;;;26.00;49.00;;;;;;4962291;28;45328;-62
2023/05/23 11:49:02;;;;;;;4.85;3.08;;;26.00;49.00;;;;;;4972443;28;45346;-62
2023/05/23 11:51:27;;;;;;;4.00;3.60;;;26.00;49.00;;;;;;4953019;28;45334;-63
2023/05/23 11:53:53;;;;;;;3.95;3.40;;;26.00;49.10;;;;;;4964558;28;46752;-63
2023/05/23 11:56:18;;;;;;;5.25;3.63;;;26.00;49.20;;;;;;4972477;28;45482;-57
2023/05/23 11:58:44;;;;;;;3.97;3.58;;;26.10;49.20;;;;;;4985217;28;45388;-60
2023/05/23 12:01:10;;;;;;;4.93;3.15;;;26.00;49.20;;;;;;4959480;28;45739;-58
2023/05/23 12:03:49;;;;;;;4.65;3.40;;;26.10;49.10;;;;;;4978377;28;45572;-55
2023/05/23 12:06:18;;;;;;;3.50;3.20;;;26.10;49.20;;;;;;4991663;28;45155;-58
2023/05/23 12:08:45;;;;;;;3.65;3.05;;;26.10;49.10;;;;;;4997020;28;44733;-54
2023/05/23 12:11:11;;;;;;;3.65;3.35;;;26.10;49.10;;;;;;4984086;28;45304;-56
2023/05/23 12:13:36;;;;;;;4.18;3.63;;;26.20;49.10;;;;;;4958457;28;45332;-56
2023/05/23 12:16:03;;;;;;;5.88;3.47;;;26.20;49.10;;;;;;4970843;28;46984;-55
2023/05/23 12:18:30;;;;;;;3.92;3.35;;;26.10;49.00;;;;;;4990790;28;45454;-56
2023/05/23 12:21:02;;;;;;;3.28;2.97;;;26.20;48.90;;;;;;4991595;28;45992;-56
2023/05/23 12:23:28;;;;;;;3.67;3.33;;;26.20;48.80;;;;;;5001273;28;44736;-56
2023/05/23 12:25:54;;;;;;;5.10;3.28;;;26.20;48.90;;;;;;4992033;28;46905;-57
2023/05/23 12:28:20;;;;;;;3.35;3.05;;;26.20;48.90;;;;;;4990459;28;45248;-59
2023/05/23 12:30:46;;;;;;;3.65;3.35;;;26.20;48.80;;;;;;4986937;28;45551;-58
2023/05/23 12:33:12;;;;;;;3.10;2.80;;;26.20;48.70;;;;;;4994835;28;45248;-57
2023/05/23 12:35:41;;;;;;;4.32;3.28;;;26.20;48.70;;;;;;4977557;28;45937;-58
2023/05/23 12:38:07;;;;;;;3.65;3.10;;;26.30;48.70;;;;;;4971023;28;45246;-56
2023/05/23 12:40:33;;;;;;;3.30;3.00;;;26.30;48.70;;;;;;4979439;28;45697;-61
2023/05/23 12:42:58;;;;;;;3.67;3.33;;;26.20;48.60;;;;;;4971555;28;45507;-57
2023/05/23 12:45:31;;;;;;;3.28;2.97;;;26.30;48.60;;;;;;4984650;28;46166;-59
2023/05/23 12:47:56;;;;;;;3.92;3.20;;;26.30;48.60;;;;;;4991009;28;45212;-59
2023/05/23 12:50:22;;;;;;;3.55;3.25;;;26.30;48.60;;;;;;4983499;28;44943;-60
2023/05/23 12:52:47;;;;;;;3.15;2.72;;;26.30;48.60;;;;;;4967068;28;46115;-58
2023/05/23 12:55:13;;;;;;;3.47;2.85;;;26.30;48.50;;;;;;4987262;28;45994;-62
2023/05/23 12:57:39;;;;;;;2.67;2.47;;;26.30;48.50;;;;;;4974588;28;44660;-60
2023/05/23 13:00:05;;;;;;;3.42;2.92;;;26.30;48.50;;;;;;4981543;28;45339;-61
2023/05/23 13:02:30;;;;;;;2.88;2.67;;;26.30;48.40;;;;;;4959740;28;46061;-59
2023/05/23 13:04:56;;;;;;;2.55;2.35;;;26.30;48.30;;;;;;4992496;28;45869;-57
2023/05/23 13:07:22;;;;;;;3.30;3.00;;;26.30;48.40;;;;;;4976044;28;45809;-59
2023/05/23 13:09:47;;;;;;;3.85;3.25;;;26.30;48.40;;;;;;4976053;28;45325;-59
2023/05/23 13:12:13;;;;;;;3.00;2.70;;;26.30;48.30;;;;;;4989958;28;45301;-61
2023/05/23 13:14:40;;;;;;;2.45;2.25;;;26.30;48.20;;;;;;4986999;28;46858;-58
2023/05/23 13:17:05;;;;;;;3.38;2.80;;;26.30;48.20;;;;;;4970421;28;45242;-59
2023/05/23 13:19:31;;;;;;;2.50;2.30;;;26.30;48.10;;;;;;5002051;28;45368;-59
2023/05/23 13:21:57;;;;;;;5.30;2.78;;;26.30;48.10;;;;;;4981792;28;45573;-58
2023/05/23 13:24:23;;;;;;;3.00;2.70;;;26.30;48.20;;;;;;4976787;28;46179;-60
2023/05/23 13:26:48;;;;;;;2.90;2.70;;;26.30;48.20;;;;;;4957399;28;44755;-58
2023/05/23 13:29:14;;;;;;;3.22;2.92;;;26.30;48.20;;;;;;4971316;28;45378;-58
2023/05/23 13:31:39;;;;;;;2.78;2.33;;;26.30;48.10;;;;;;4985418;28;45735;-59
2023/05/23 13:34:05;;;;;;;2.63;2.42;;;26.30;48.10;;;;;;4995697;28;46072;-59
2023/05/23 13:36:32;;;;;;;3.22;2.70;;;26.30;48.70;;;;;;4966006;28;45508;-59
2023/05/23 13:38:58;;;;;;;2.45;2.25;;;26.30;48.00;;;;;;4988860;28;45022;-57
2023/05/23 13:41:24;;;;;;;2.95;2.58;;;26.30;48.00;;;;;;4992202;28;45411;-57
2023/05/23 13:43:50;;;;;;;4.30;2.50;;;26.30;47.90;;;;;;4978183;28;46606;-59
2023/05/23 13:46:15;;;;;;;2.28;2.08;;;26.30;47.90;;;;;;4972124;28;45291;-59
2023/05/23 13:48:41;;;;;;;2.42;2.17;;;26.30;47.90;;;;;;4965149;28;45552;-59
2023/05/23 13:51:06;;;;;;;3.25;2.90;;;26.30;47.90;;;;;;4989942;28;45552;-58
2023/05/23 13:53:32;;;;;;;3.33;2.95;;;26.40;48.00;;;;;;4984666;28;45674;-57
2023/05/23 13:55:57;;;;;;;3.40;2.63;;;26.30;47.90;;;;;;4968107;28;45666;-58
2023/05/23 13:58:23;;;;;;;2.90;2.70;;;26.30;47.90;;;;;;4993288;28;45621;-60
2023/05/23 14:00:48;;;;;;;2.97;2.38;;;26.30;48.50;;;;;;4982067;28;45221;-58
2023/05/23 14:03:14;;;;;;;2.50;2.30;;;26.30;47.90;;;;;;4976049;28;46051;-59
2023/05/23 14:05:40;;;;;;;3.63;2.53;;;26.30;47.90;;;;;;4972436;28;45228;-59
2023/05/23 14:08:06;;;;;;;2.60;2.30;;;26.30;47.90;;;;;;4974708;28;44699;-57
2023/05/23 14:10:34;;;;;;;2.97;2.60;;;26.30;47.90;;;;;;4989679;28;44772;-58
2023/05/23 14:13:00;;;;;;;3.95;2.33;;;26.30;47.90;;;;;;4998088;28;46167;-56
2023/05/23 14:15:26;;;;;;;2.72;2.10;;;26.30;47.70;;;;;;4987533;28;45693;-64
2023/05/23 14:17:54;;;;;;;3.85;2.50;;;26.40;47.80;;;;;;4992683;28;44649;-57
2023/05/23 14:20:20;;;;;;;2.47;2.28;;;26.40;47.70;;;;;;4988184;28;45360;-58
2023/05/23 14:22:46;;;;;;;4.55;2.60;;;26.40;47.60;;;;;;4993853;28;46288;-58
2023/05/23 14:25:12;;;;;;;3.00;2.67;;;26.40;47.80;;;;;;4989138;28;45464;-62
2023/05/23 14:27:39;;;;;;;2.72;2.22;;;26.40;47.70;;;;;;4973252;28;45299;-57
2023/05/23 14:30:05;;;;;;;2.50;2.28;;;26.40;47.60;;;;;;4992920;28;44955;-60
2023/05/23 14:32:37;;;;;;;2.67;2.47;;;26.40;47.60;;;;;;4970327;28;45246;-57
2023/05/23 14:35:05;;;;;;;3.28;1.95;;;26.40;47.80;;;;;;4990934;28;45633;-61
2023/05/23 14:37:31;;;;;;;2.45;2.17;;;26.40;47.70;;;;;;4988040;28;46129;-59
2023/05/23 14:39:57;;;;;;;2.10;2.00;;;26.40;47.60;;;;;;4974706;28;45063;-57
2023/05/23 14:42:22;;;;;;;2.95;2.13;;;26.40;47.60;;;;;;4953529;28;46112;-55
2023/05/23 14:44:48;;;;;;;2.40;2.20;;;26.40;47.60;;;;;;4992936;28;45604;-59
2023/05/23 14:47:13;;;;;;;3.25;2.10;;;26.40;47.70;;;;;;4964329;28;45368;-59
2023/05/23 14:49:39;;;;;;;3.65;2.20;;;26.40;47.60;;;;;;4968895;28;45135;-57
2023/05/23 14:52:05;;;;;;;2.58;2.33;;;26.40;47.60;;;;;;5004276;28;46086;-59
2023/05/23 14:54:30;;;;;;;2.42;2.22;;;26.40;47.50;;;;;;4993706;28;45338;-58
2023/05/23 14:56:56;;;;;;;4.03;2.00;;;26.40;47.60;;;;;;4985847;28;45340;-59
2023/05/23 14:59:21;;;;;;;1.70;1.60;;;26.40;47.60;;;;;;4992769;28;45587;-58
2023/05/23 15:01:47;;;;;;;2.20;2.00;;;26.40;47.60;;;;;;4980741;28;46217;-59
2023/05/23 15:04:13;;;;;;;3.58;1.73;;;26.30;47.50;;;;;;4994361;28;44670;-58
2023/05/23 15:06:39;;;;;;;2.72;2.25;;;26.40;47.60;;;;;;4984851;28;45484;-59
2023/05/23 15:09:04;;;;;;;2.30;2.10;;;26.40;47.60;;;;;;4991727;28;45647;-58
2023/05/23 15:11:30;;;;;;;2.42;1.80;;;26.40;47.60;;;;;;4986269;28;47055;-61
2023/05/23 15:13:56;;;;;;;2.05;1.85;;;26.40;47.60;;;;;;4994812;28;45075;-59
2023/05/23 15:16:22;;;;;;;2.10;1.90;;;26.40;47.60;;;;;;4983567;28;45207;-58
2023/05/23 15:18:47;;;;;;;2.28;2.08;;;26.40;47.50;;;;;;4975431;28;45434;-58
2023/05/23 15:21:13;;;;;;;2.38;2.17;;;26.40;47.60;;;;;;4984749;28;48107;-58
2023/05/23 15:23:38;;;;;;;2.42;2.13;;;26.30;47.40;;;;;;4993321;28;45758;-58
2023/05/23 15:26:04;;;;;;;1.98;1.80;;;26.40;47.40;;;;;;4971503;28;45513;-59
2023/05/23 15:28:30;;;;;;;2.13;1.92;;;26.40;47.40;;;;;;4993144;28;45247;-55
2023/05/23 15:30:56;;;;;;;2.22;2.03;;;26.40;47.40;;;;;;4983937;28;45622;-58
2023/05/23 15:33:22;;;;;;;2.17;1.98;;;26.40;47.50;;;;;;4992197;28;45779;-56
2023/05/23 15:35:47;;;;;;;1.70;1.60;;;26.40;47.40;;;;;;4986727;28;44706;-59
2023/05/23 15:38:13;;;;;;;2.08;1.60;;;26.40;47.40;;;;;;4992564;28;44728;-56
2023/05/23 15:40:38;;;;;;;2.40;2.10;;;26.40;47.40;;;;;;4985609;28;46947;-59
2023/05/23 15:43:04;;;;;;;2.08;1.80;;;26.40;47.40;;;;;;4981821;28;45256;-59
2023/05/23 15:45:29;;;;;;;2.50;1.98;;;26.40;47.40;;;;;;4985836;28;45431;-57